Aérodrome :
LOGIN :

S'inscrire | Disclaimer

   EN    FR    IT 

 










Légende :    VFR   VFR Marginal   IFR   IFR Intensif   IFR Très Intensif
Visi : 
Plafond : 
>= 8 km
>= 3000ft
5 à 8 km
1000 à 3000 ft
1500m à 5 km
500 à 1000 ft
800 à 1500m
200 à 500 ft
< 800m
< 200 ft
Symboles :   Orages  Brouillard  Fortes neiges  Fortes précipitations  Vent > 20 kt
SIGMETs :   Divers  Orages  Givrage  Turbulence  Onde Orograph.  Cendres Volcan.






- Altitude de l'aérodrome : 461 ft
- Code IATA : WIE


ETOU - Wiesbaden Army

DERNIER METAR :
  • 202256Z AUTO 00000KT 9999 CLR 18/05 A3000 RMK AO2 SLP157 T01840052 402530101 $

METARs EXPIRÉS :
  • 202156Z AUTO 06006KT 9999 CLR 19/06 A3000 RMK AO2 SLP157 T01870059 $
  • 202056Z AUTO 03003KT 9999 CLR 18/06 A3000 RMK AO2 SLP158 T01840056 50007 $

TAF AMD TAF ETOU
Valide du 20 à 08h jusqu'au 21 à 10h UTC


200815Z 2008/2110 VRB06KT 9999 FEW270 QNH2998INS TX24/2014Z TN09/2104Z LAST NO AMDS AFT 2009 NEXT 2104



MET'MAP, la Météo Aéronautique d'un coup d'oeil ! - Copyright ORBIFLY Décembre 2007 - Disclaimer

ORBIFLY MET'MAP TEAM :

Programmation & Développement : Alexandra Zaïnal
Sur une idée originale de : Baudouin d'Aumeries
Assistance à la programmation : Marc-Olivier Méhu
Soutien technique & logistique : Manuel Goepfert

Contact : metmap@orbifly.com




SOURCES & CREDITS :

   NOAA